TNCM/SXM METAR and TAF weather

Enter ICAO airport designator
Station Type Date Time Source
TNCM METAR 2022/08/12 15:00 UTC NOAA

TNCM 121500Z 07009KT 040V100 9999 FEW022 31/21 Q1018 NOSIG


Station Type Date Time Source
TNCM Decoded METAR 2022/08/12 15:00 UTC NOAA

Juliana Airport, Saint Maarten, Netherlands Antilles (TNCM) 18-03N 063-07W 9M
Aug 12, 2022 - 11:00 AM EDT / 2022.08.12 1500 UTC
Wind: from the ENE (070 degrees) at 10 MPH (9 KT) (direction variable):0
Visibility: greater than 7 mile(s):0
Sky conditions: mostly clear
Temperature: 87 F (31 C)
Dew Point: 69 F (21 C)
Relative Humidity: 55%
Pressure (altimeter): 30.06 in. Hg (1018 hPa)
ob: TNCM 121500Z 07009KT 040V100 9999 FEW022 31/21 Q1018 NOSIG
cycle: 15

Station Type Date Time Source
TNCM TAF 2022/08/12 12:15 UTC NOAA

TAF TNCM 121006Z 1212/1312 06010KT 9999 SCT018 PROB40
TEMPO 1223/1206 08012KT 7000 SHRA BKN016

Example: see airport list